Overview Statistics Trail Chart Weather Telemetry Raw packets
 

This is the latest recevied weather packets stored in our database for station/object R2AKT-13. If no packets are shown the sender has not sent any weather packets the latest 10 day(s).

<< 38 39 40 41 42 43 44 >>
Time Temp. Humidity Pressure Rain* Wind** Luminosity Snow
1788190366 18.89° C 62% 993.4 hPa - 0 m/s - -
1788189881 20° C 57% 993.4 hPa - 0 m/s - -
1788189346 20° C 58% 993.5 hPa - 0.45 m/s, 270° - -
1788188766 20.56° C 56% 993.5 hPa - 0 m/s - -
1788188260 20.56° C 56% 993.4 hPa - 0 m/s - -
1788187741 20° C 57% 993.5 hPa - 0 m/s - -
1788187226 20.56° C 56% 993.5 hPa - 0 m/s - -
1788186726 20° C 57% 993.5 hPa - 0.45 m/s, 274° - -
1788186245 20° C 58% 993.5 hPa - 0.45 m/s, 258° - -
1788185716 20° C 58% 993.6 hPa - 0 m/s - -
1788185161 20° C 60% 993.6 hPa - 0 m/s - -
1788184621 18.89° C 63% 993.7 hPa - 0.89 m/s, 267° - -
1788184076 20° C 60% 993.7 hPa - 0.45 m/s, 160° - -
1788183506 18.89° C 64% 993.8 hPa - 0.45 m/s, 215° - -
1788182956 19.44° C 60% 993.8 hPa - 0.45 m/s, 262° - -
1788182461 19.44° C 60% 993.8 hPa - 0.45 m/s, 240° - -
1788181906 18.89° C 63% 993.7 hPa - 0.45 m/s, 249° - -
1788181341 18.89° C 62% 993.7 hPa - 0.45 m/s, 265° - -
1788180806 20° C 60% 993.8 hPa - 0 m/s - -
1788180244 19.44° C 63% 993.7 hPa - 0.45 m/s, 239° - -
1788179666 19.44° C 63% 993.8 hPa - 0.45 m/s, 258° - -
1788179091 18.89° C 65% 993.8 hPa - 0 m/s - -
1788178561 18.89° C 65% 993.8 hPa - 0.89 m/s, 248° - -
1788177971 18.89° C 64% 993.9 hPa - 0 m/s - -
1788177441 18.33° C 66% 993.9 hPa - 0 m/s - -

* Rain since midnight (hover to see other rain measurements)
** Current wind speed in m/s (hover to see current wind gust speed)